Time;durP1;ratioP1;P1;durP2;ratioP2;P2;SDS_P1;SDS_P2;PMS_P1;PMS_P2;Temp;Humidity;BMP_temperature;BMP_pressure;BME280_temperature;BME280_humidity;BME280_pressure;Samples;Min_cycle;Max_cycle;Signal;HPM_P1;HPM_P2
2021/06/23 00:02:22;;;;;;;53.93;41.00;;;14.20;99.90;;;;;;5094207;28;20158;-73
2021/06/23 00:04:48;;;;;;;45.10;38.30;;;14.20;99.90;;;;;;5094262;28;20205;-72
2021/06/23 00:07:14;;;;;;;44.90;38.50;;;14.20;99.90;;;;;;5093948;28;20717;-72
2021/06/23 00:09:39;;;;;;;51.03;38.43;;;14.20;99.90;;;;;;5094039;28;20161;-72
2021/06/23 00:12:12;;;;;;;46.10;35.70;;;14.20;99.90;;;;;;5093695;28;20222;-72
2021/06/23 00:14:38;;;;;;;48.93;37.83;;;14.20;99.90;;;;;;5093940;28;20161;-72
2021/06/23 00:17:04;;;;;;;44.60;36.50;;;14.20;99.90;;;;;;5093348;28;20429;-72
2021/06/23 00:19:29;;;;;;;39.90;35.73;;;14.20;99.90;;;;;;5093798;28;20716;-72
2021/06/23 00:21:55;;;;;;;42.40;36.87;;;14.20;99.90;;;;;;5094108;28;20228;-72
2021/06/23 00:24:20;;;;;;;43.83;39.07;;;14.20;99.90;;;;;;5093996;28;20182;-72
2021/06/23 00:26:46;;;;;;;43.67;36.43;;;14.20;99.90;;;;;;5093707;28;20595;-72
2021/06/23 00:29:12;;;;;;;37.87;34.20;;;14.20;99.90;;;;;;5093775;28;20571;-72
2021/06/23 00:31:37;;;;;;;40.90;35.50;;;14.20;99.90;;;;;;5092822;28;20181;-72
2021/06/23 00:34:04;;;;;;;42.87;38.03;;;14.20;99.90;;;;;;5093290;28;20175;-72
2021/06/23 00:36:30;;;;;;;43.37;35.80;;;14.20;99.90;;;;;;5093710;28;20239;-72
2021/06/23 00:38:55;;;;;;;38.90;35.03;;;14.20;99.90;;;;;;5093729;28;20425;-72
2021/06/23 00:41:21;;;;;;;41.27;36.03;;;14.20;99.90;;;;;;5093471;28;20437;-72
2021/06/23 00:43:47;;;;;;;42.70;36.37;;;14.20;99.90;;;;;;5093166;28;20172;-72
2021/06/23 00:46:14;;;;;;;39.20;34.37;;;14.10;99.90;;;;;;5093347;28;20159;-72
2021/06/23 00:48:40;;;;;;;37.50;33.80;;;14.10;99.90;;;;;;5093558;28;20495;-72
2021/06/23 00:51:06;;;;;;;38.10;34.13;;;14.00;99.90;;;;;;5088073;28;20901;-72
2021/06/23 00:53:32;;;;;;;37.20;33.63;;;14.00;99.90;;;;;;5073184;28;20160;-72
2021/06/23 00:55:59;;;;;;;39.53;35.40;;;14.10;99.90;;;;;;5077671;28;20924;-72
2021/06/23 00:58:26;;;;;;;36.93;33.20;;;14.10;99.90;;;;;;5093075;28;20397;-72
2021/06/23 01:00:54;;;;;;;37.77;33.80;;;14.10;99.90;;;;;;5093128;28;20390;-72
2021/06/23 01:03:22;;;;;;;37.40;33.87;;;14.00;99.90;;;;;;5093354;28;20421;-73
2021/06/23 01:05:48;;;;;;;38.10;32.67;;;14.10;99.90;;;;;;5093165;28;20514;-72
2021/06/23 01:08:13;;;;;;;35.97;32.37;;;14.10;99.90;;;;;;5092311;28;20453;-72
2021/06/23 01:10:39;;;;;;;36.70;33.07;;;14.10;99.90;;;;;;5092999;28;20481;-72
2021/06/23 01:16:06;;;;;;;37.93;31.70;;;14.00;99.90;;;;;;5069732;28;21173;-73
2021/06/23 01:18:34;;;;;;;34.20;30.70;;;14.00;99.90;;;;;;5070000;28;20441;-73
2021/06/23 01:21:00;;;;;;;36.50;33.27;;;14.00;99.90;;;;;;5069653;28;20385;-73
2021/06/23 01:23:25;;;;;;;32.77;29.60;;;14.00;99.90;;;;;;5069576;28;20393;-73
2021/06/23 01:25:51;;;;;;;33.57;30.57;;;14.00;99.90;;;;;;5057573;28;20418;-73
2021/06/23 01:28:18;;;;;;;42.63;30.43;;;14.00;99.90;;;;;;5049604;28;20151;-73
2021/06/23 01:30:43;;;;;;;33.13;29.97;;;14.00;99.90;;;;;;5049790;28;20874;-74
2021/06/23 01:33:10;;;;;;;30.53;27.63;;;14.00;99.90;;;;;;5049577;28;20390;-74
2021/06/23 01:35:36;;;;;;;32.50;29.20;;;14.00;99.90;;;;;;5049441;28;20194;-74
2021/06/23 01:38:04;;;;;;;30.97;27.97;;;14.00;99.90;;;;;;5049370;28;20392;-73
2021/06/23 01:40:30;;;;;;;32.03;28.97;;;14.00;99.90;;;;;;5049243;28;20169;-73
2021/06/23 01:42:56;;;;;;;31.90;27.90;;;14.00;99.90;;;;;;5055862;28;20556;-73
2021/06/23 01:45:23;;;;;;;30.27;27.27;;;14.00;99.90;;;;;;5049421;28;20549;-73
2021/06/23 01:47:49;;;;;;;28.73;26.20;;;14.00;99.90;;;;;;5049394;28;20453;-73
2021/06/23 01:50:15;;;;;;;29.30;26.50;;;14.00;99.90;;;;;;5049215;28;20400;-74
2021/06/23 01:52:41;;;;;;;29.63;26.80;;;14.00;99.90;;;;;;5049192;28;20157;-74
2021/06/23 01:55:08;;;;;;;28.40;25.67;;;14.00;99.90;;;;;;5049082;28;20246;-74
2021/06/23 01:57:41;;;;;;;30.07;25.80;;;14.00;99.90;;;;;;5066883;28;20952;-74
2021/06/23 02:00:07;;;;;;;29.67;26.90;;;14.00;99.90;;;;;;5068079;28;20442;-74
2021/06/23 02:02:43;;;;;;;30.87;27.70;;;14.00;99.90;;;;;;5069234;28;20412;-74
2021/06/23 02:05:18;;;;;;;31.90;28.00;;;14.00;99.90;;;;;;5068844;28;20437;-74
2021/06/23 02:07:57;;;;;;;29.73;26.83;;;14.00;99.90;;;;;;5068694;28;20397;-73
2021/06/23 02:11:03;;;;;;;30.10;26.97;;;14.00;99.90;;;;;;5068709;28;20956;-73
2021/06/23 02:16:09;;;;;;;29.37;26.47;;;14.00;99.90;;;;;;5064594;28;20528;-73
2021/06/23 02:18:36;;;;;;;30.97;27.70;;;14.00;99.90;;;;;;5049752;28;20480;-73
2021/06/23 02:21:03;;;;;;;33.80;27.57;;;14.00;99.90;;;;;;5049828;28;20422;-73
2021/06/23 02:23:29;;;;;;;29.63;27.03;;;14.00;99.90;;;;;;5049670;28;20431;-73
2021/06/23 02:25:56;;;;;;;36.57;28.10;;;14.00;99.90;;;;;;5050158;28;20399;-69
2021/06/23 02:28:22;;;;;;;30.93;27.60;;;14.00;99.90;;;;;;5049613;28;20479;-69
2021/06/23 02:30:49;;;;;;;30.63;27.90;;;14.00;99.90;;;;;;5049616;28;20807;-69
2021/06/23 02:33:15;;;;;;;31.30;28.17;;;14.00;99.90;;;;;;5049413;28;20561;-69
2021/06/23 02:35:41;;;;;;;33.27;29.77;;;14.00;99.90;;;;;;5049436;28;20450;-69
2021/06/23 02:38:07;;;;;;;31.57;27.57;;;14.00;99.90;;;;;;5049421;28;20192;-69
2021/06/23 02:40:33;;;;;;;31.07;28.13;;;14.00;99.90;;;;;;5049909;28;20191;-73
2021/06/23 02:42:59;;;;;;;31.27;28.27;;;14.00;99.90;;;;;;5049306;28;20450;-73
2021/06/23 02:45:27;;;;;;;31.40;28.40;;;14.00;99.90;;;;;;5049708;28;20423;-73
2021/06/23 02:47:53;;;;;;;30.17;27.23;;;14.00;99.90;;;;;;5049567;28;20414;-73
2021/06/23 02:50:19;;;;;;;30.70;27.60;;;14.00;99.90;;;;;;5049038;28;20418;-73
2021/06/23 02:52:45;;;;;;;30.80;27.90;;;14.00;99.90;;;;;;5049158;28;20814;-73
2021/06/23 02:55:19;;;;;;;31.70;28.20;;;14.00;99.90;;;;;;5048987;28;20807;-73
2021/06/23 02:57:45;;;;;;;29.50;26.63;;;14.00;99.90;;;;;;5048954;28;20434;-72
2021/06/23 03:00:12;;;;;;;29.37;26.83;;;14.10;99.90;;;;;;5032039;28;20521;-72
2021/06/23 03:02:37;;;;;;;29.60;26.73;;;14.10;99.90;;;;;;5029312;28;20960;-72
2021/06/23 03:05:04;;;;;;;27.80;25.10;;;14.00;99.90;;;;;;5029029;28;20396;-72
2021/06/23 03:07:29;;;;;;;27.93;25.30;;;14.00;99.90;;;;;;5028825;28;20596;-72
2021/06/23 03:10:06;;;;;;;27.53;24.87;;;14.00;99.90;;;;;;5028918;28;20408;-72
2021/06/23 03:12:31;;;;;;;27.77;25.07;;;14.00;99.90;;;;;;5029048;28;20254;-72
2021/06/23 03:14:57;;;;;;;28.43;25.83;;;14.00;99.90;;;;;;5028755;28;20496;-72
2021/06/23 03:17:22;;;;;;;27.37;24.87;;;14.00;99.90;;;;;;5028778;28;20522;-72
2021/06/23 03:19:48;;;;;;;30.03;27.13;;;14.00;99.90;;;;;;5028712;28;20175;-72
2021/06/23 03:22:13;;;;;;;27.47;24.00;;;14.00;99.90;;;;;;5028623;28;20197;-72
2021/06/23 03:24:39;;;;;;;26.90;24.50;;;14.00;99.90;;;;;;5028566;28;20188;-72
2021/06/23 03:27:06;;;;;;;28.23;25.43;;;14.00;99.90;;;;;;5017475;28;20167;-72
2021/06/23 03:29:34;;;;;;;25.97;23.77;;;14.00;99.90;;;;;;5015569;28;20737;-72
2021/06/23 03:32:01;;;;;;;24.30;22.20;;;14.00;99.90;;;;;;5015181;28;20482;-72
2021/06/23 03:34:27;;;;;;;27.53;24.53;;;14.00;99.90;;;;;;5015216;28;20513;-72
2021/06/23 03:36:53;;;;;;;25.73;23.17;;;14.00;99.90;;;;;;5015313;28;20397;-72
2021/06/23 03:39:19;;;;;;;26.80;24.17;;;14.00;99.90;;;;;;5015105;28;20550;-72
2021/06/23 03:41:45;;;;;;;26.07;23.63;;;14.00;99.90;;;;;;5015005;28;20435;-72
2021/06/23 03:44:11;;;;;;;25.90;23.57;;;14.00;99.90;;;;;;5015289;28;20168;-72
2021/06/23 03:46:36;;;;;;;25.17;22.90;;;14.00;99.90;;;;;;5015025;28;20162;-72
2021/06/23 03:49:02;;;;;;;22.87;20.80;;;14.10;99.90;;;;;;5015073;28;20170;-72
2021/06/23 03:51:28;;;;;;;23.63;21.10;;;14.10;99.90;;;;;;5014965;28;20678;-72
2021/06/23 03:53:54;;;;;;;25.43;22.57;;;14.10;99.90;;;;;;5014857;28;20413;-72
2021/06/23 03:56:20;;;;;;;25.17;22.70;;;14.00;99.90;;;;;;5014945;28;20184;-72
2021/06/23 03:58:45;;;;;;;24.50;22.00;;;14.10;99.90;;;;;;5014679;28;20197;-72
2021/06/23 04:01:11;;;;;;;26.73;24.17;;;14.00;99.90;;;;;;5014809;28;20166;-72
2021/06/23 04:03:37;;;;;;;25.10;22.60;;;14.10;99.90;;;;;;5014889;28;20158;-72
2021/06/23 04:06:03;;;;;;;24.70;22.10;;;14.10;99.90;;;;;;5014844;28;20213;-72
2021/06/23 04:08:28;;;;;;;24.87;22.43;;;14.10;99.90;;;;;;5014746;28;20249;-72
2021/06/23 04:10:54;;;;;;;30.10;23.67;;;14.10;99.90;;;;;;5014850;28;20261;-72
2021/06/23 04:13:19;;;;;;;25.40;22.73;;;14.10;99.90;;;;;;5014895;28;20682;-72
2021/06/23 04:15:45;;;;;;;24.80;21.80;;;14.10;99.90;;;;;;5014273;28;20742;-72
2021/06/23 04:18:10;;;;;;;24.60;22.00;;;14.10;99.90;;;;;;5014341;28;20190;-72
2021/06/23 04:20:36;;;;;;;24.37;22.07;;;14.10;99.90;;;;;;5014557;28;20182;-72
2021/06/23 04:23:02;;;;;;;22.67;19.90;;;14.10;99.90;;;;;;5012450;28;20177;-72
2021/06/23 04:25:27;;;;;;;23.77;21.33;;;14.10;99.90;;;;;;5012157;28;20270;-72
2021/06/23 04:27:53;;;;;;;25.10;22.53;;;14.10;99.90;;;;;;5014747;28;20219;-72
2021/06/23 04:30:19;;;;;;;27.17;22.20;;;14.10;99.90;;;;;;5014242;28;20170;-72
2021/06/23 04:32:45;;;;;;;25.23;22.83;;;14.10;99.90;;;;;;5013247;28;20187;-72
2021/06/23 04:35:11;;;;;;;25.03;22.47;;;14.20;99.90;;;;;;5013383;28;20471;-72
2021/06/23 04:37:40;;;;;;;25.10;22.33;;;14.10;99.90;;;;;;5011703;28;20237;-72
2021/06/23 04:40:09;;;;;;;22.90;20.90;;;14.10;99.90;;;;;;5011288;28;20576;-72
2021/06/23 04:42:34;;;;;;;24.63;20.90;;;14.10;99.90;;;;;;5012191;28;20781;-74
2021/06/23 04:45:00;;;;;;;25.23;20.40;;;14.10;99.90;;;;;;5010594;28;20458;-74
2021/06/23 04:47:25;;;;;;;21.17;19.10;;;14.10;99.90;;;;;;5012410;28;20200;-74
2021/06/23 04:49:51;;;;;;;21.50;19.20;;;14.10;99.90;;;;;;5011898;28;20232;-74
2021/06/23 04:52:17;;;;;;;22.03;20.03;;;14.20;99.90;;;;;;5012522;28;20187;-74
2021/06/23 04:54:42;;;;;;;22.90;19.97;;;14.20;99.90;;;;;;5013238;28;20194;-74
2021/06/23 04:57:08;;;;;;;22.13;20.00;;;14.20;99.90;;;;;;5014163;28;20284;-74
2021/06/23 04:59:34;;;;;;;22.37;20.10;;;14.20;99.90;;;;;;5013675;28;20667;-74
2021/06/23 05:02:00;;;;;;;21.40;19.27;;;14.20;99.90;;;;;;5010276;28;20470;-74
2021/06/23 05:04:25;;;;;;;21.30;19.40;;;14.20;99.90;;;;;;5022923;28;20185;-74
2021/06/23 05:06:51;;;;;;;20.10;18.30;;;14.20;99.90;;;;;;5020308;28;20648;-73
2021/06/23 05:09:17;;;;;;;21.90;17.43;;;14.20;99.90;;;;;;5030206;28;20207;-74
2021/06/23 05:11:42;;;;;;;22.60;18.90;;;14.30;99.90;;;;;;5010553;28;20616;-74
2021/06/23 05:14:09;;;;;;;20.37;18.23;;;14.30;99.90;;;;;;5013749;28;20565;-74
2021/06/23 05:16:37;;;;;;;21.03;17.77;;;14.30;99.90;;;;;;4993661;28;20162;-73
2021/06/23 05:19:03;;;;;;;22.43;18.17;;;14.30;99.90;;;;;;4991941;28;20432;-74
2021/06/23 05:21:32;;;;;;;22.43;17.37;;;14.30;99.90;;;;;;5006029;28;20454;-74
2021/06/23 05:23:57;;;;;;;18.73;16.70;;;14.30;99.90;;;;;;5004082;28;20240;-74
2021/06/23 05:26:23;;;;;;;22.53;16.13;;;14.30;99.90;;;;;;5001302;28;20433;-74
2021/06/23 05:28:49;;;;;;;18.83;16.87;;;14.40;99.90;;;;;;4994906;28;20634;-74
2021/06/23 05:31:14;;;;;;;23.60;16.40;;;14.40;99.90;;;;;;5011328;28;20163;-74
2021/06/23 05:33:40;;;;;;;19.00;16.97;;;14.40;99.90;;;;;;5010822;28;20244;-74
2021/06/23 05:36:05;;;;;;;18.03;15.70;;;14.40;99.90;;;;;;5009827;28;20200;-74
2021/06/23 05:38:31;;;;;;;20.17;16.50;;;14.50;99.90;;;;;;5011418;28;20180;-73
2021/06/23 05:40:56;;;;;;;18.67;15.53;;;14.50;99.90;;;;;;5011573;28;20198;-73
2021/06/23 05:43:22;;;;;;;21.47;15.90;;;14.50;99.90;;;;;;5011496;28;20172;-73
2021/06/23 05:45:47;;;;;;;18.30;16.50;;;14.60;99.90;;;;;;5010752;28;20187;-73
2021/06/23 05:48:13;;;;;;;18.53;16.60;;;14.60;99.90;;;;;;5011909;28;20645;-72
2021/06/23 05:50:41;;;;;;;17.97;16.17;;;14.70;99.90;;;;;;5012248;28;20622;-72
2021/06/23 05:53:07;;;;;;;17.37;15.50;;;14.70;99.90;;;;;;5012046;28;20255;-72
2021/06/23 05:55:32;;;;;;;17.43;15.63;;;14.70;99.90;;;;;;5012534;28;20449;-72
2021/06/23 05:57:58;;;;;;;20.00;16.40;;;14.80;99.90;;;;;;5011042;28;20550;-72
2021/06/23 06:00:25;;;;;;;20.53;16.57;;;14.80;99.90;;;;;;5010078;28;20205;-72
2021/06/23 06:02:51;;;;;;;18.80;17.13;;;14.80;99.90;;;;;;5010460;28;20214;-72
2021/06/23 06:05:17;;;;;;;18.20;16.50;;;14.90;99.90;;;;;;5012034;28;20430;-72
2021/06/23 06:07:42;;;;;;;20.90;15.97;;;14.90;99.90;;;;;;5012356;28;21201;-72
2021/06/23 06:10:10;;;;;;;36.90;17.10;;;14.90;99.90;;;;;;5012650;28;20186;-72
2021/06/23 06:12:36;;;;;;;16.67;14.87;;;14.90;99.90;;;;;;5012564;28;20176;-72
2021/06/23 06:15:02;;;;;;;22.07;16.33;;;15.00;99.90;;;;;;5010055;28;20477;-73
2021/06/23 06:17:28;;;;;;;18.40;16.50;;;15.00;99.90;;;;;;5011744;28;20431;-73
2021/06/23 06:19:54;;;;;;;18.80;16.43;;;15.10;99.90;;;;;;5010348;28;20489;-72
2021/06/23 06:22:19;;;;;;;17.13;15.40;;;15.10;99.90;;;;;;5012132;28;20404;-73
2021/06/23 06:24:45;;;;;;;21.63;17.90;;;15.10;99.90;;;;;;5009443;28;20696;-73
2021/06/23 06:27:10;;;;;;;17.73;16.17;;;15.20;99.90;;;;;;5010058;28;20624;-73
2021/06/23 06:29:36;;;;;;;19.17;17.03;;;15.10;99.90;;;;;;5009469;28;20270;-72
2021/06/23 06:32:02;;;;;;;18.17;16.27;;;15.10;99.90;;;;;;5005318;28;20283;-72
2021/06/23 06:34:27;;;;;;;19.33;16.57;;;15.10;99.90;;;;;;5009943;28;20358;-72
2021/06/23 06:36:53;;;;;;;19.60;17.23;;;15.10;99.90;;;;;;5007734;28;20185;-72
2021/06/23 06:39:19;;;;;;;16.93;15.27;;;15.10;99.90;;;;;;5008252;28;20684;-72
2021/06/23 06:41:44;;;;;;;23.00;18.23;;;15.10;99.90;;;;;;5009843;28;20219;-73
2021/06/23 06:44:10;;;;;;;21.50;16.97;;;15.10;99.90;;;;;;5009878;28;20180;-73
2021/06/23 06:46:37;;;;;;;21.23;17.57;;;15.10;99.90;;;;;;5003953;28;20207;-73
2021/06/23 06:49:03;;;;;;;18.43;16.83;;;15.10;99.90;;;;;;5005445;28;20543;-73
2021/06/23 06:51:30;;;;;;;19.87;18.03;;;15.10;99.90;;;;;;5010543;28;20424;-73
2021/06/23 06:53:55;;;;;;;18.93;17.10;;;15.10;99.90;;;;;;5006908;28;20522;-73
2021/06/23 06:56:21;;;;;;;18.27;16.33;;;15.00;99.90;;;;;;5009474;28;20530;-73
2021/06/23 06:58:46;;;;;;;20.10;16.40;;;15.00;99.90;;;;;;5010115;28;20192;-73
2021/06/23 07:01:12;;;;;;;19.50;17.43;;;15.00;99.90;;;;;;5012617;28;20717;-73
2021/06/23 07:03:37;;;;;;;21.07;17.80;;;15.00;99.90;;;;;;5014680;28;20180;-73
2021/06/23 07:06:03;;;;;;;26.07;17.70;;;15.10;99.90;;;;;;5015613;28;20184;-73
2021/06/23 07:08:29;;;;;;;19.97;17.80;;;15.10;99.90;;;;;;5019752;28;20187;-73
2021/06/23 07:10:54;;;;;;;21.23;18.57;;;15.10;99.90;;;;;;5014988;28;20302;-73
2021/06/23 07:13:20;;;;;;;20.70;16.47;;;15.10;99.90;;;;;;5013874;28;20189;-73
2021/06/23 07:15:45;;;;;;;22.03;17.77;;;15.10;99.90;;;;;;5014745;28;20251;-73
2021/06/23 07:18:11;;;;;;;21.23;19.23;;;15.20;99.90;;;;;;5015216;28;20172;-73
2021/06/23 07:20:36;;;;;;;20.47;18.27;;;15.20;99.90;;;;;;5015768;28;20221;-73
2021/06/23 07:23:02;;;;;;;19.57;17.53;;;15.20;99.90;;;;;;5015364;28;20318;-73
2021/06/23 07:25:28;;;;;;;18.93;16.23;;;15.20;99.90;;;;;;5014767;28;20559;-73
2021/06/23 07:27:53;;;;;;;21.90;17.90;;;15.30;99.90;;;;;;5025687;28;20206;-73
2021/06/23 07:30:20;;;;;;;23.63;18.63;;;15.40;99.90;;;;;;5014542;28;20191;-74
2021/06/23 07:32:52;;;;;;;23.80;20.07;;;15.40;99.90;;;;;;5014694;28;20176;-73
2021/06/23 07:38:07;;;;;;;22.00;19.40;;;15.50;99.90;;;;;;5011668;28;20432;-73
2021/06/23 07:40:53;;;;;;;23.63;18.50;;;15.60;99.90;;;;;;5012439;28;20426;-73
2021/06/23 07:43:19;;;;;;;21.97;19.10;;;15.70;99.90;;;;;;5004753;28;20420;-73
2021/06/23 07:45:52;;;;;;;19.47;17.47;;;15.70;99.90;;;;;;5014861;28;20459;-73
2021/06/23 07:48:31;;;;;;;19.10;17.20;;;15.70;99.90;;;;;;5014729;28;20267;-73
2021/06/23 07:51:15;;;;;;;19.33;17.33;;;15.80;99.90;;;;;;5015115;28;20380;-74
2021/06/23 07:56:27;;;;;;;19.87;17.10;;;15.90;99.90;;;;;;5066210;28;20516;-73
2021/06/23 08:12:54;;;;;;;22.33;18.13;;;15.90;99.90;;;;;;5061084;28;20992;-73
2021/06/23 08:15:20;;;;;;;21.40;19.30;;;16.00;99.90;;;;;;5050551;28;20453;-72
2021/06/23 08:17:46;;;;;;;23.50;17.67;;;16.00;99.90;;;;;;5052764;28;20446;-73
2021/06/23 08:20:12;;;;;;;21.67;19.37;;;16.00;99.90;;;;;;5051098;28;20425;-73
2021/06/23 08:22:38;;;;;;;21.90;19.87;;;16.00;99.90;;;;;;5056693;28;20169;-73
2021/06/23 08:25:06;;;;;;;20.60;18.60;;;16.10;99.90;;;;;;5069679;28;20811;-73
2021/06/23 08:27:32;;;;;;;18.57;16.83;;;16.20;99.90;;;;;;5053287;28;20434;-74
2021/06/23 08:30:01;;;;;;;19.37;17.30;;;16.30;99.90;;;;;;5057201;28;20456;-73
2021/06/23 08:32:27;;;;;;;19.33;17.33;;;16.40;99.90;;;;;;5077348;28;20492;-73
2021/06/23 08:34:54;;;;;;;20.30;16.77;;;16.40;99.90;;;;;;5067677;28;20536;-73
2021/06/23 08:37:22;;;;;;;25.60;18.60;;;16.40;99.90;;;;;;5065155;28;20204;-74
2021/06/23 08:39:48;;;;;;;22.90;17.47;;;16.40;99.90;;;;;;5052342;28;20927;-74
2021/06/23 08:42:14;;;;;;;18.33;16.53;;;16.40;99.90;;;;;;5062110;28;20541;-73
2021/06/23 08:44:40;;;;;;;20.30;18.37;;;16.40;99.90;;;;;;5065467;28;20192;-74
2021/06/23 08:47:06;;;;;;;18.10;16.40;;;16.40;99.90;;;;;;5071800;28;20432;-73
2021/06/23 08:49:33;;;;;;;20.20;18.20;;;16.50;99.90;;;;;;5052304;28;20227;-73
2021/06/23 08:52:00;;;;;;;19.60;17.63;;;16.60;99.90;;;;;;5050891;28;20417;-75
2021/06/23 08:54:27;;;;;;;18.90;17.00;;;16.60;99.90;;;;;;5050320;28;20521;-74
2021/06/23 08:56:56;;;;;;;19.30;17.30;;;16.70;99.90;;;;;;5051697;28;20419;-74
2021/06/23 08:59:24;;;;;;;19.40;17.53;;;16.80;99.90;;;;;;5057024;28;20438;-73
2021/06/23 09:01:50;;;;;;;18.90;17.00;;;16.90;99.90;;;;;;5070358;28;20445;-75
2021/06/23 09:04:18;;;;;;;18.00;16.17;;;17.10;99.90;;;;;;5067368;28;20438;-74
2021/06/23 09:12:16;;;;;;;18.17;16.27;;;17.20;99.90;;;;;;5153904;27;20510;-73
2021/06/23 09:14:42;;;;;;;19.37;15.70;;;17.70;99.90;;;;;;5165732;27;20570;-73
2021/06/23 09:19:55;;;;;;;18.37;16.57;;;17.80;99.90;;;;;;5067313;28;20550;-74
2021/06/23 09:22:39;;;;;;;16.57;15.07;;;17.90;99.90;;;;;;5036312;28;20430;-74
2021/06/23 09:27:56;;;;;;;19.70;17.63;;;18.00;99.90;;;;;;5074461;28;20546;-72
2021/06/23 09:36:00;;;;;;;17.00;14.97;;;18.20;99.90;;;;;;5020247;27;20594;-75
2021/06/23 09:38:47;;;;;;;15.63;14.10;;;18.40;99.90;;;;;;5003198;28;20450;-76
2021/06/23 09:41:24;;;;;;;17.80;15.93;;;18.50;99.90;;;;;;5079338;28;20467;-77
2021/06/23 09:43:52;;;;;;;16.73;15.03;;;18.50;99.90;;;;;;5000716;28;20421;-76
2021/06/23 09:46:21;;;;;;;17.00;13.57;;;18.70;99.90;;;;;;5002043;28;20417;-76
2021/06/23 09:48:48;;;;;;;15.27;13.77;;;18.60;99.90;;;;;;5006014;28;20933;-75
2021/06/23 09:51:18;;;;;;;20.00;13.50;;;18.70;99.90;;;;;;5000346;28;20921;-75
2021/06/23 09:53:44;;;;;;;16.27;14.10;;;18.70;99.90;;;;;;5003124;28;21358;-76
2021/06/23 09:56:32;;;;;;;16.90;14.40;;;18.70;99.90;;;;;;5001103;28;20904;-75
2021/06/23 09:58:58;;;;;;;16.30;14.83;;;18.60;99.90;;;;;;5083712;28;20968;-76
2021/06/23 10:01:25;;;;;;;15.27;13.63;;;18.60;99.90;;;;;;4998371;28;20961;-75
2021/06/23 10:09:20;;;;;;;15.60;14.10;;;18.60;99.90;;;;;;5087927;27;20630;-72
2021/06/23 10:11:48;;;;;;;16.57;15.10;;;18.60;99.90;;;;;;5074369;28;20422;-73
2021/06/23 10:14:14;;;;;;;16.07;14.40;;;18.60;99.90;;;;;;5064669;28;20426;-73
2021/06/23 10:16:40;;;;;;;17.60;14.40;;;18.60;99.90;;;;;;5070201;28;20952;-73
2021/06/23 10:19:07;;;;;;;16.40;14.57;;;18.60;99.90;;;;;;5070828;28;20182;-73
2021/06/23 10:21:35;;;;;;;18.33;15.23;;;18.60;99.90;;;;;;5071123;28;20513;-73
2021/06/23 10:24:01;;;;;;;18.13;15.40;;;18.70;99.90;;;;;;5072747;28;20417;-73
2021/06/23 10:26:29;;;;;;;16.80;14.33;;;18.70;99.90;;;;;;5077787;28;20464;-73
2021/06/23 10:28:59;;;;;;;15.43;14.10;;;18.70;99.90;;;;;;5067143;28;20488;-73
2021/06/23 10:31:26;;;;;;;15.70;14.13;;;18.80;99.90;;;;;;5068457;28;20651;-73
2021/06/23 10:33:55;;;;;;;15.63;14.17;;;18.80;99.90;;;;;;5068883;28;20983;-73
2021/06/23 10:36:24;;;;;;;18.97;14.40;;;18.90;99.90;;;;;;5067914;28;20398;-73
2021/06/23 10:38:50;;;;;;;20.60;15.10;;;18.90;99.90;;;;;;5068616;28;20417;-73
2021/06/23 10:41:16;;;;;;;17.37;14.80;;;18.90;99.90;;;;;;5074000;28;20422;-73
2021/06/23 10:43:43;;;;;;;15.50;13.80;;;19.00;99.90;;;;;;5068095;28;20835;-73
2021/06/23 10:46:10;;;;;;;17.53;15.67;;;19.10;99.90;;;;;;5059127;28;20426;-73
2021/06/23 10:48:57;;;;;;;16.27;14.53;;;19.20;99.90;;;;;;5061221;28;20519;-73
2021/06/23 10:51:25;;;;;;;16.90;12.73;;;19.30;99.90;;;;;;5067968;28;20503;-73
2021/06/23 10:53:50;;;;;;;14.40;13.10;;;19.50;99.90;;;;;;5070465;28;20474;-73
2021/06/23 10:56:41;;;;;;;21.13;14.23;;;19.60;99.90;;;;;;5066499;28;20445;-73
2021/06/23 10:59:32;;;;;;;17.17;15.00;;;19.80;99.90;;;;;;5060631;28;20221;-72
2021/06/23 11:02:14;;;;;;;14.00;12.43;;;19.90;99.90;;;;;;5061422;28;20529;-72
2021/06/23 11:07:46;;;;;;;16.40;13.07;;;20.40;99.90;;;;;;5087264;28;20897;-72
2021/06/23 11:12:54;;;;;;;16.33;12.43;;;20.50;99.90;;;;;;5076713;27;20578;-72
2021/06/23 11:21:16;;;;;;;14.70;12.07;;;20.60;99.90;;;;;;5061438;28;21094;-72
2021/06/23 11:31:49;;;;;;;14.60;13.10;;;20.60;99.90;;;;;;5071479;27;20533;-75
2021/06/23 11:37:16;;;;;;;14.30;12.80;;;20.50;99.90;;;;;;5101484;27;20523;-73
2021/06/23 11:39:43;;;;;;;13.97;11.80;;;20.50;99.90;;;;;;5084457;28;20512;-73
2021/06/23 11:42:09;;;;;;;14.80;13.37;;;20.40;99.90;;;;;;5078926;28;20421;-73
2021/06/23 11:44:36;;;;;;;16.50;14.23;;;20.30;99.90;;;;;;5075821;28;20844;-73
2021/06/23 11:47:02;;;;;;;16.53;12.30;;;20.30;99.90;;;;;;5080721;28;21121;-73
2021/06/23 11:49:30;;;;;;;15.40;14.10;;;20.30;99.90;;;;;;5081587;28;20516;-73
2021/06/23 11:52:00;;;;;;;14.90;12.53;;;20.40;99.90;;;;;;5084097;28;20425;-73
2021/06/23 11:54:26;;;;;;;14.03;12.73;;;20.40;99.90;;;;;;5085141;28;20883;-73
2021/06/23 11:56:52;;;;;;;15.53;12.00;;;20.50;99.90;;;;;;5078559;28;20547;-73
2021/06/23 11:59:18;;;;;;;13.60;12.30;;;20.60;99.90;;;;;;5076162;28;20199;-73
2021/06/23 12:01:43;;;;;;;18.17;13.70;;;20.70;99.90;;;;;;5080111;28;20524;-73
2021/06/23 12:04:09;;;;;;;16.47;12.83;;;20.90;99.90;;;;;;5080877;28;20390;-73
2021/06/23 12:06:34;;;;;;;15.60;13.97;;;21.00;99.90;;;;;;5076906;28;20163;-73
2021/06/23 12:09:00;;;;;;;17.20;11.60;;;21.10;99.90;;;;;;5075636;28;20733;-73
2021/06/23 12:11:26;;;;;;;13.67;12.27;;;21.10;99.90;;;;;;5074318;28;20197;-73
2021/06/23 12:13:51;;;;;;;14.03;12.60;;;21.10;99.90;;;;;;5074321;28;20540;-73
2021/06/23 12:16:17;;;;;;;16.20;13.13;;;21.10;99.90;;;;;;5074404;28;20596;-73
2021/06/23 12:18:42;;;;;;;14.73;12.97;;;20.90;99.90;;;;;;5077692;28;20229;-73
2021/06/23 12:21:08;;;;;;;16.47;13.13;;;20.90;99.90;;;;;;5075190;28;20172;-74
2021/06/23 12:23:35;;;;;;;13.77;12.20;;;20.90;99.90;;;;;;5074090;28;20629;-73
2021/06/23 12:26:00;;;;;;;13.17;11.53;;;20.90;99.90;;;;;;5073166;28;20175;-73
2021/06/23 12:28:26;;;;;;;12.43;11.33;;;21.00;99.90;;;;;;5080123;28;20421;-73
2021/06/23 12:30:52;;;;;;;14.90;12.57;;;21.10;99.90;;;;;;5079916;28;20186;-73
2021/06/23 12:33:18;;;;;;;13.00;11.73;;;21.20;99.90;;;;;;5075792;28;20271;-73
2021/06/23 12:35:45;;;;;;;12.93;11.77;;;21.20;99.90;;;;;;5082984;28;20556;-73
2021/06/23 12:38:13;;;;;;;17.63;12.10;;;21.10;99.90;;;;;;5072060;28;20633;-73
2021/06/23 12:40:39;;;;;;;14.70;13.27;;;21.10;99.90;;;;;;5074846;28;20406;-73
2021/06/23 12:43:10;;;;;;;15.13;12.90;;;21.20;99.90;;;;;;5088391;28;20428;-73
2021/06/23 12:45:36;;;;;;;14.13;12.87;;;21.30;99.90;;;;;;5075540;28;20483;-73
2021/06/23 12:48:05;;;;;;;14.93;11.83;;;21.30;99.90;;;;;;5064469;28;20417;-73
2021/06/23 12:50:31;;;;;;;18.73;12.10;;;21.40;99.90;;;;;;5069315;28;20427;-73
2021/06/23 12:52:57;;;;;;;13.00;11.63;;;21.50;99.90;;;;;;5069184;28;20418;-73
2021/06/23 12:55:23;;;;;;;13.53;12.17;;;21.50;99.90;;;;;;5066123;28;20199;-73
2021/06/23 12:57:49;;;;;;;12.87;11.40;;;21.60;99.90;;;;;;5056796;28;20168;-73
2021/06/23 13:00:16;;;;;;;13.90;12.37;;;21.70;99.90;;;;;;5060847;28;20453;-73
2021/06/23 13:02:44;;;;;;;17.10;14.10;;;21.70;99.90;;;;;;5060033;28;20262;-73
2021/06/23 13:05:11;;;;;;;14.97;13.40;;;21.70;99.90;;;;;;5069640;28;20418;-73
2021/06/23 13:07:37;;;;;;;14.07;12.60;;;21.80;99.90;;;;;;5067601;28;20414;-73
2021/06/23 13:10:05;;;;;;;15.43;13.90;;;21.80;99.90;;;;;;5066784;28;20769;-73
2021/06/23 13:12:32;;;;;;;15.13;12.63;;;21.80;99.90;;;;;;5063725;28;20167;-73
2021/06/23 13:14:58;;;;;;;15.40;14.00;;;21.90;99.90;;;;;;5064386;28;21253;-73
2021/06/23 13:17:24;;;;;;;15.70;14.10;;;21.90;99.90;;;;;;5066256;28;20499;-73
2021/06/23 13:19:50;;;;;;;16.27;13.80;;;22.00;99.90;;;;;;5070306;28;20421;-73
2021/06/23 13:22:16;;;;;;;17.13;15.43;;;22.00;99.90;;;;;;5071643;28;20425;-73
2021/06/23 13:24:41;;;;;;;16.57;13.93;;;21.90;99.90;;;;;;5072804;28;20229;-73
2021/06/23 13:27:09;;;;;;;16.20;13.30;;;21.90;99.90;;;;;;5063027;28;20174;-73
2021/06/23 13:29:35;;;;;;;16.00;14.43;;;22.00;99.90;;;;;;5065110;28;20821;-73
2021/06/23 13:32:01;;;;;;;15.23;13.93;;;22.00;99.90;;;;;;5056200;28;20422;-73
2021/06/23 13:34:27;;;;;;;15.37;14.07;;;21.90;99.90;;;;;;5078364;28;20464;-73
2021/06/23 13:36:53;;;;;;;15.23;13.67;;;21.70;99.90;;;;;;5073427;28;20298;-73
2021/06/23 13:39:18;;;;;;;15.50;13.73;;;21.60;99.90;;;;;;5074188;28;20216;-73